This is the latest recevied weather packets stored in our database for station/object K9TLD. If no packets are shown the sender has not sent any weather packets the latest 10 day(s).
| Time | Temp. | Humidity | Pressure | Rain* | Wind** | Luminosity | Snow |
|---|---|---|---|---|---|---|---|
| 1787410476 | 23.89° C | 66% | 1015.1 hPa | 0 mm | - | 482 W/m² | - |
| 1787410171 | 23.33° C | 66% | 1015.2 hPa | 0 mm | - | 446 W/m² | - |
| 1787409868 | 23.33° C | 66% | 1015 hPa | 0 mm | - | 446 W/m² | - |
| 1787409563 | 23.33° C | 66% | 1014.7 hPa | 0 mm | - | 446 W/m² | - |
| 1787409258 | 21.67° C | 69% | 1015 hPa | 0 mm | - | 164 W/m² | - |
| 1787408954 | 21.67° C | 69% | 1015.2 hPa | 0 mm | - | 164 W/m² | - |
| 1787408650 | 21.67° C | 69% | 1015.3 hPa | 0 mm | - | 164 W/m² | - |
| 1787408344 | 21.67° C | 69% | 1015.1 hPa | 0 mm | - | 164 W/m² | - |
| 1787408041 | 21.67° C | 69% | 1015.1 hPa | 0 mm | - | 164 W/m² | - |
| 1787407736 | 22.22° C | 68% | 1015.3 hPa | 0 mm | - | 231 W/m² | - |
| 1787407431 | 22.22° C | 68% | 1015.2 hPa | 0 mm | - | 231 W/m² | - |
| 1787407126 | 22.22° C | 67% | 1015.2 hPa | 0 mm | - | 229 W/m² | - |
| 1787406823 | 21.67° C | 70% | 1015.2 hPa | 0 mm | - | 318 W/m² | - |
| 1787406522 | 20.56° C | 75% | 1015.2 hPa | 0 mm | - | 222 W/m² | - |
| 1787406219 | 20.56° C | 75% | 1015.2 hPa | 0 mm | - | 222 W/m² | - |
| 1787405915 | 20.56° C | 75% | 1015.2 hPa | 0 mm | - | 222 W/m² | - |
| 1787405611 | 20.56° C | 75% | 1015.2 hPa | 0 mm | - | 222 W/m² | - |
| 1787405311 | 20.56° C | 75% | 1015.2 hPa | 0 mm | - | 222 W/m² | - |
| 1787405007 | 20.56° C | 75% | 1015.2 hPa | 0 mm | - | 222 W/m² | - |
| 1787404702 | 20.56° C | 73% | 1015.2 hPa | 0 mm | - | 218 W/m² | - |
| 1787404401 | 20.56° C | 75% | 1015.2 hPa | 0 mm | - | 204 W/m² | - |
| 1787404097 | 20° C | 77% | 1015.1 hPa | 0 mm | - | 173 W/m² | - |
| 1787403793 | 20° C | 77% | 1015.2 hPa | 0 mm | - | 173 W/m² | - |
| 1787403492 | 18.89° C | 79% | 1015.1 hPa | 0 mm | - | 145 W/m² | - |
| 1787403188 | 18.89° C | 79% | 1015 hPa | 0 mm | - | 145 W/m² | - |
* Rain latest hour (hover to see other rain measurements)
** Current wind speed in m/s (hover to see current wind gust speed)